YITT weather

Mitta Mitta Airport
Victoria, Australia

Public forecast

Using degrees Celsius for public forecast. Weather courtesy of forecast.io.

Closest aviation weather report (METAR) to Mitta Mitta Airport

Closest report is Albury Airport, 33.1 nm (61.3 km) NW. Retrieved 2019/10/16 19:12 UTC (9 minutes ago):

YMAY 161912Z AUTO 29007KT 9999 // SCT013 SCT017 BKN024 11/10 Q1009

Closest aviation forecast (TAF) to Mitta Mitta Airport

Closest forecast is Wangaratta Airport, 51.1 nm (94.7 km) W. Retrieved 2019/10/16 19:03 UTC (18 minutes ago):

TAF YWGT 161807Z 1619/1708 26014KT 9999 -SHRA BKN050 FM162200 27018G28KT 9999 -SHRA SCT050 INTER 1700/1706 26020G35KT 5000 SHRA BKN030